Time;durP1;ratioP1;P1;durP2;ratioP2;P2;SDS_P1;SDS_P2;PMS_P1;PMS_P2;Temp;Humidity;BMP_temperature;BMP_pressure;BME280_temperature;BME280_humidity;BME280_pressure;Samples;Min_cycle;Max_cycle;Signal;HPM_P1;HPM_P2
2022/01/09 00:00:19;;;;;;;32.73;22.62;;;;;;;2.21;76.16;100229.81;1774158;80;21095;-90
2022/01/09 00:02:48;;;;;;;37.93;24.32;;;;;;;2.21;76.17;100231.52;1774140;79;21058;-90
2022/01/09 00:05:15;;;;;;;39.88;24.92;;;;;;;2.21;76.23;100236.72;1773869;79;21098;-90
2022/01/09 00:07:42;;;;;;;37.80;23.92;;;;;;;2.22;76.27;100230.73;1773859;79;21066;-89
2022/01/09 00:10:09;;;;;;;38.42;25.15;;;;;;;2.19;76.22;100222.35;1773774;79;21841;-89
2022/01/09 00:12:36;;;;;;;41.77;25.32;;;;;;;2.16;76.24;100222.22;1773558;79;21007;-89
2022/01/09 00:15:03;;;;;;;41.42;25.57;;;;;;;2.16;76.25;100216.11;1773693;79;21121;-91
2022/01/09 00:17:31;;;;;;;46.53;25.20;;;;;;;2.15;76.26;100212.64;1773727;79;21600;-89
2022/01/09 00:19:58;;;;;;;34.13;23.75;;;;;;;2.17;76.37;100207.52;1774284;79;21051;-87
2022/01/09 00:25:06;;;;;;;37.15;21.97;;;;;;;2.20;76.40;100209.87;1740128;80;21035;-90
2022/01/09 00:27:33;;;;;;;36.17;22.42;;;;;;;2.22;76.29;100208.23;1774855;79;21576;-89
2022/01/09 00:29:59;;;;;;;32.73;21.05;;;;;;;2.22;76.16;100206.05;1774676;79;21059;-90
2022/01/09 00:32:26;;;;;;;29.12;18.40;;;;;;;2.22;76.12;100204.76;1774219;79;21679;-90
2022/01/09 00:34:53;;;;;;;26.48;16.95;;;;;;;2.20;75.89;100207.69;1774694;80;21826;-91
2022/01/09 00:37:19;;;;;;;30.02;18.57;;;;;;;2.14;75.59;100203.08;1774405;80;21039;-90
2022/01/09 00:39:46;;;;;;;24.50;17.82;;;;;;;2.09;75.53;100210.63;1774821;80;21071;-89
2022/01/09 00:42:13;;;;;;;24.32;16.20;;;;;;;2.07;75.44;100211.38;1774720;80;21004;-91
2022/01/09 00:44:39;;;;;;;27.85;16.35;;;;;;;2.02;75.36;100215.44;1774697;79;21082;-90
2022/01/09 00:47:06;;;;;;;28.90;17.73;;;;;;;2.00;75.35;100210.16;1774826;80;21742;-91
2022/01/09 00:49:32;;;;;;;24.05;16.67;;;;;;;2.00;75.43;100204.97;1774452;80;21486;-92
2022/01/09 00:51:59;;;;;;;23.90;16.05;;;;;;;2.01;75.42;100196.77;1774732;80;21011;-91
2022/01/09 00:54:26;;;;;;;22.27;15.25;;;;;;;2.01;75.48;100195.08;1774216;80;21047;-89
2022/01/09 00:56:53;;;;;;;21.37;15.98;;;;;;;2.02;75.41;100192.95;1773333;80;21039;-91
2022/01/09 00:59:19;;;;;;;23.80;15.43;;;;;;;2.04;75.41;100193.92;1773227;80;21225;-91
2022/01/09 01:01:46;;;;;;;21.37;14.87;;;;;;;2.01;75.26;100197.68;1774056;80;21466;-89
2022/01/09 01:04:13;;;;;;;25.40;15.50;;;;;;;1.98;75.17;100192.32;1774132;79;21578;-88
2022/01/09 01:06:40;;;;;;;22.00;15.63;;;;;;;1.96;75.01;100180.09;1772308;80;21160;-89
2022/01/09 01:09:06;;;;;;;23.27;15.75;;;;;;;1.93;74.92;100186.00;1771988;81;21005;-89
2022/01/09 01:11:33;;;;;;;21.70;14.70;;;;;;;1.88;74.87;100184.48;1771899;81;21229;-89
2022/01/09 01:14:00;;;;;;;21.75;14.45;;;;;;;1.86;74.89;100191.30;1772696;80;21000;-90
2022/01/09 01:16:26;;;;;;;21.33;14.53;;;;;;;1.86;74.84;100187.41;1766648;80;21053;-88
2022/01/09 01:18:55;;;;;;;22.62;13.50;;;;;;;1.85;74.73;100182.14;1772795;80;21086;-88
2022/01/09 01:21:26;;;;;;;18.82;13.48;;;;;;;1.81;74.66;100178.49;1774305;80;21055;-89
2022/01/09 01:23:51;;;;;;;19.20;13.90;;;;;;;1.79;74.62;100166.27;1772975;80;21780;-89
2022/01/09 01:26:19;;;;;;;20.32;13.70;;;;;;;1.78;74.65;100171.84;1773023;80;21055;-88
2022/01/09 01:28:46;;;;;;;19.87;13.35;;;;;;;1.75;74.63;100166.52;1773857;80;21501;-89
2022/01/09 01:31:13;;;;;;;19.90;13.43;;;;;;;1.75;74.75;100169.11;1773284;80;21101;-89
2022/01/09 01:33:39;;;;;;;20.60;13.65;;;;;;;1.78;74.77;100164.47;1774768;79;21031;-88
2022/01/09 01:36:08;;;;;;;22.90;13.72;;;;;;;1.80;74.78;100168.03;1773461;80;21001;-88
2022/01/09 01:38:34;;;;;;;21.90;13.85;;;;;;;1.82;74.80;100178.08;1773228;80;21070;-89
2022/01/09 01:41:01;;;;;;;21.52;13.85;;;;;;;1.82;74.76;100170.30;1773869;80;21011;-89
2022/01/09 01:43:28;;;;;;;20.82;13.65;;;;;;;1.76;74.83;100151.41;1775075;80;21255;-89
2022/01/09 01:45:54;;;;;;;21.20;13.70;;;;;;;1.84;74.72;100168.66;1772767;80;21493;-89
2022/01/09 01:48:21;;;;;;;20.30;13.53;;;;;;;1.74;74.46;100166.02;1774327;80;22380;-90
2022/01/09 01:50:48;;;;;;;22.27;13.93;;;;;;;1.60;74.31;100164.03;1773224;80;21051;-91
2022/01/09 01:53:18;;;;;;;24.25;14.20;;;;;;;1.44;74.21;100165.33;1773861;80;21519;-90
2022/01/09 01:55:44;;;;;;;23.67;14.38;;;;;;;1.26;74.24;100160.06;1813463;77;21022;-90
2022/01/09 01:58:11;;;;;;;22.93;14.53;;;;;;;1.09;74.29;100162.68;1813588;78;20999;-91
2022/01/09 02:00:40;;;;;;;21.05;15.00;;;;;;;0.93;74.34;100157.06;1813762;78;21754;-90
2022/01/09 02:03:08;;;;;;;23.73;15.60;;;;;;;0.78;74.44;100158.41;1813180;78;21013;-91
2022/01/09 02:05:34;;;;;;;24.72;15.80;;;;;;;0.65;74.64;100152.49;1813537;78;21074;-89
2022/01/09 02:08:02;;;;;;;24.47;16.42;;;;;;;0.53;74.79;100155.31;1813582;78;21533;-88
2022/01/09 02:10:29;;;;;;;29.32;17.65;;;;;;;0.43;74.91;100155.59;1813570;78;21113;-88
2022/01/09 02:13:01;;;;;;;32.80;19.60;;;;;;;0.26;74.97;100145.58;1812664;78;22628;-90
2022/01/09 02:15:42;;;;;;;81.45;30.20;;;;;;;0.17;75.12;100160.20;1771399;79;21008;-89
2022/01/09 02:18:10;;;;;;;86.95;34.45;;;;;;;0.06;75.35;100165.17;1773455;79;21553;-90
2022/01/09 02:20:37;;;;;;;99.40;38.42;;;;;;;-0.04;75.54;100165.02;1768541;80;21508;-91
2022/01/09 02:23:06;;;;;;;88.58;36.85;;;;;;;-0.28;75.75;100148.59;1773147;79;21071;-90
2022/01/09 02:25:34;;;;;;;83.12;36.45;;;;;;;-0.23;76.02;100165.23;1772445;80;21760;-88
2022/01/09 02:28:01;;;;;;;68.22;35.17;;;;;;;-0.33;76.13;100165.52;1772812;79;21736;-87
2022/01/09 02:30:32;;;;;;;64.87;34.43;;;;;;;-0.39;76.40;100170.34;1773323;79;21051;-87
2022/01/09 02:32:58;;;;;;;60.78;34.13;;;;;;;-0.48;76.47;100165.91;1773092;80;21028;-88
2022/01/09 02:35:25;;;;;;;60.70;34.55;;;;;;;-0.54;76.75;100166.84;1773543;80;21027;-87
2022/01/09 02:37:52;;;;;;;64.40;34.67;;;;;;;-0.59;76.90;100166.14;1773149;80;21749;-89
2022/01/09 02:40:19;;;;;;;60.60;35.88;;;;;;;-0.68;76.99;100166.88;1773177;80;21574;-89
2022/01/09 02:42:47;;;;;;;63.17;36.93;;;;;;;-0.73;77.15;100160.94;1773259;80;21042;-89
2022/01/09 02:45:13;;;;;;;61.92;37.17;;;;;;;-0.77;77.42;100165.44;1771725;80;21044;-89
2022/01/09 02:47:40;;;;;;;67.45;38.90;;;;;;;-0.75;77.72;100158.30;1772786;80;21082;-90
2022/01/09 02:50:17;;;;;;;63.33;37.98;;;;;;;-0.67;77.96;100155.76;1773317;80;21781;-90
2022/01/09 02:52:48;;;;;;;66.10;38.70;;;;;;;-0.65;77.90;100151.57;1772742;79;21482;-89
2022/01/09 02:57:32;;;;;;;69.92;40.45;;;;;;;-0.57;78.21;100164.06;1807263;79;21352;-90
2022/01/09 02:59:59;;;;;;;63.95;40.70;;;;;;;-0.50;78.35;100161.05;1807742;78;21105;-90
2022/01/09 03:02:26;;;;;;;64.10;39.10;;;;;;;-0.45;78.38;100158.31;1807483;79;21878;-91
2022/01/09 03:04:53;;;;;;;63.25;39.50;;;;;;;-0.40;78.40;100156.90;1807379;78;21521;-91
2022/01/09 03:07:19;;;;;;;63.98;39.40;;;;;;;-0.34;78.48;100156.38;1807581;78;21043;-91
2022/01/09 03:09:46;;;;;;;64.40;38.48;;;;;;;-0.30;78.51;100145.40;1807547;78;21016;-90
2022/01/09 03:12:13;;;;;;;62.35;38.50;;;;;;;-0.25;78.54;100139.69;1807437;78;21106;-90
2022/01/09 03:14:39;;;;;;;65.80;38.60;;;;;;;-0.17;78.63;100145.30;1807566;79;21806;-90
2022/01/09 03:17:06;;;;;;;61.28;34.40;;;;;;;-0.08;78.75;100139.38;1807645;77;21085;-90
2022/01/09 03:19:33;;;;;;;57.85;37.48;;;;;;;0.03;78.78;100148.17;1807787;78;21023;-91
2022/01/09 03:22:01;;;;;;;54.50;32.50;;;;;;;0.11;78.76;100141.34;1795615;79;21015;-90
2022/01/09 03:24:28;;;;;;;51.65;32.95;;;;;;;0.18;78.74;100137.39;1807678;78;21093;-90
2022/01/09 03:26:55;;;;;;;51.53;31.85;;;;;;;0.25;78.71;100131.76;1807505;78;21724;-91
2022/01/09 03:29:21;;;;;;;52.62;32.15;;;;;;;0.32;78.68;100134.27;1807528;78;21559;-90
2022/01/09 03:31:48;;;;;;;51.70;31.70;;;;;;;0.36;78.54;100132.37;1807518;78;21035;-90
2022/01/09 03:34:15;;;;;;;50.43;31.05;;;;;;;0.36;78.40;100136.25;1807292;79;21047;-90
2022/01/09 03:36:41;;;;;;;48.83;30.05;;;;;;;0.38;78.44;100138.11;1807465;78;21073;-90
2022/01/09 03:39:08;;;;;;;54.13;33.75;;;;;;;0.43;78.49;100138.76;1807322;79;21718;-91
2022/01/09 03:41:36;;;;;;;55.43;31.90;;;;;;;0.45;78.43;100129.38;1807230;78;21522;-90
2022/01/09 03:44:04;;;;;;;50.25;32.38;;;;;;;0.44;78.33;100124.61;1807556;78;21532;-91
2022/01/09 03:46:31;;;;;;;53.78;32.15;;;;;;;0.41;78.22;100119.25;1807474;78;22195;-90
2022/01/09 03:48:59;;;;;;;57.20;33.45;;;;;;;0.34;78.08;100124.51;1807399;78;21070;-91
2022/01/09 03:51:32;;;;;;;52.88;33.85;;;;;;;0.30;78.23;100116.09;1768649;80;21861;-91
2022/01/09 03:53:54;;;;;;;55.90;33.65;;;;;;;0.33;78.32;100107.59;1735569;81;21569;-90
2022/01/09 03:56:21;;;;;;;54.38;32.45;;;;;;;0.33;78.40;100109.77;1757077;81;21056;-91
2022/01/09 03:58:48;;;;;;;53.83;34.45;;;;;;;0.37;78.45;100116.01;1752455;81;21037;-91
2022/01/09 04:01:14;;;;;;;54.77;32.05;;;;;;;0.40;78.38;100118.78;1753387;81;21059;-90
2022/01/09 04:03:41;;;;;;;52.43;32.15;;;;;;;0.35;78.19;100118.92;1754406;81;22754;-91
2022/01/09 04:06:08;;;;;;;55.52;33.18;;;;;;;0.35;78.28;100108.56;1754127;81;21087;-91
2022/01/09 04:08:35;;;;;;;57.33;33.73;;;;;;;0.35;78.31;100112.03;1754540;81;21040;-91
2022/01/09 04:11:03;;;;;;;59.48;34.67;;;;;;;0.35;78.27;100105.97;1754824;81;21149;-91
2022/01/09 04:13:29;;;;;;;65.35;38.33;;;;;;;0.36;78.28;100114.25;1754495;81;21063;-90
2022/01/09 04:15:56;;;;;;;74.12;42.00;;;;;;;0.36;78.30;100107.36;1733470;81;21921;-91
2022/01/09 04:18:23;;;;;;;79.82;44.77;;;;;;;0.38;78.33;100107.03;1754530;81;21999;-90
2022/01/09 04:20:51;;;;;;;77.25;43.05;;;;;;;0.37;78.34;100101.77;1754476;81;21008;-91
2022/01/09 04:23:19;;;;;;;71.95;42.62;;;;;;;0.37;78.37;100095.30;1754361;81;21119;-91
2022/01/09 04:25:46;;;;;;;77.17;44.50;;;;;;;0.37;78.43;100102.66;1754432;81;21060;-91
2022/01/09 04:28:13;;;;;;;78.02;43.40;;;;;;;0.41;78.49;100101.54;1754313;81;22549;-91
2022/01/09 04:30:39;;;;;;;87.50;46.98;;;;;;;0.45;78.50;100099.22;1754135;81;21056;-91
2022/01/09 04:33:06;;;;;;;85.60;49.15;;;;;;;0.45;78.41;100091.45;1754619;81;21028;-90
2022/01/09 04:35:33;;;;;;;93.00;50.55;;;;;;;0.46;78.47;100094.92;1754323;81;21691;-91
2022/01/09 04:38:00;;;;;;;91.75;50.33;;;;;;;0.45;78.56;100089.24;1754655;81;21017;-90
2022/01/09 04:40:26;;;;;;;93.07;50.30;;;;;;;0.46;78.63;100090.63;1754496;81;21916;-90
2022/01/09 04:42:57;;;;;;;91.80;51.68;;;;;;;0.49;78.70;100084.71;1754680;81;22086;-86
2022/01/09 04:45:23;;;;;;;92.82;49.25;;;;;;;0.52;78.71;100086.19;1754097;81;20996;-90
2022/01/09 04:47:51;;;;;;;86.32;49.38;;;;;;;0.54;78.73;100084.56;1754337;81;21566;-89
2022/01/09 04:50:24;;;;;;;95.83;49.73;;;;;;;0.52;78.65;100074.13;1754176;81;21119;-90
2022/01/09 04:52:52;;;;;;;80.22;45.73;;;;;;;0.54;78.71;100073.80;1753951;80;21747;-90
2022/01/09 04:55:21;;;;;;;86.35;45.75;;;;;;;0.56;78.77;100079.98;1753940;80;21099;-89
2022/01/09 04:57:46;;;;;;;82.88;44.88;;;;;;;0.58;78.76;100070.59;1752602;80;21118;-89
2022/01/09 05:00:13;;;;;;;78.47;42.20;;;;;;;0.59;78.69;100080.53;1752089;81;21190;-90
2022/01/09 05:02:41;;;;;;;76.87;42.55;;;;;;;0.58;78.76;100069.30;1751382;81;21522;-89
2022/01/09 05:05:09;;;;;;;74.37;39.50;;;;;;;0.63;78.82;100069.52;1752298;81;22702;-89
2022/01/09 05:07:37;;;;;;;78.25;41.00;;;;;;;0.66;78.81;100065.81;1752021;81;21037;-90
2022/01/09 05:10:05;;;;;;;82.08;42.88;;;;;;;0.70;78.78;100069.46;1752252;81;21055;-89
2022/01/09 05:12:32;;;;;;;84.87;43.63;;;;;;;0.73;78.79;100069.61;1751799;81;21625;-90
2022/01/09 05:14:58;;;;;;;79.90;42.67;;;;;;;0.76;78.79;100074.96;1752292;81;21071;-90
2022/01/09 05:17:25;;;;;;;80.85;45.08;;;;;;;0.77;78.78;100081.52;1752256;81;21762;-90
2022/01/09 05:19:53;;;;;;;81.78;46.33;;;;;;;0.80;78.77;100080.78;1752352;81;21036;-89
2022/01/09 05:22:19;;;;;;;85.03;46.40;;;;;;;0.83;78.77;100077.08;1752459;81;21613;-89
2022/01/09 05:24:46;;;;;;;86.50;43.42;;;;;;;0.89;78.74;100081.69;1752511;81;21370;-88
2022/01/09 05:27:13;;;;;;;74.95;41.00;;;;;;;0.90;78.62;100080.48;1752539;81;21029;-88
2022/01/09 05:29:39;;;;;;;63.38;35.73;;;;;;;0.91;78.64;100081.36;1752476;81;21763;-89
2022/01/09 05:32:07;;;;;;;71.57;39.05;;;;;;;0.92;78.49;100088.30;1752324;81;21122;-87
2022/01/09 05:34:34;;;;;;;57.03;33.92;;;;;;;0.91;78.37;100083.95;1752437;81;21040;-88
2022/01/09 05:37:00;;;;;;;57.58;32.90;;;;;;;0.90;78.36;100082.16;1752410;81;21064;-89
2022/01/09 05:39:27;;;;;;;57.40;33.02;;;;;;;0.87;78.24;100082.89;1752225;81;21090;-88
2022/01/09 05:41:54;;;;;;;60.90;33.45;;;;;;;0.86;78.23;100087.58;1752381;81;21750;-88
2022/01/09 05:44:23;;;;;;;64.42;33.67;;;;;;;0.86;78.11;100090.59;1752308;81;21601;-88
2022/01/09 05:46:50;;;;;;;61.23;33.05;;;;;;;0.83;78.05;100077.08;1752374;81;21041;-89
2022/01/09 05:49:16;;;;;;;64.03;34.05;;;;;;;0.81;78.05;100078.70;1752391;81;20978;-90
2022/01/09 05:51:43;;;;;;;67.90;35.95;;;;;;;0.81;78.07;100091.65;1752178;81;22255;-90
2022/01/09 05:54:10;;;;;;;69.62;37.85;;;;;;;0.83;78.18;100094.33;1752251;81;21776;-89
2022/01/09 05:56:36;;;;;;;78.78;38.70;;;;;;;0.86;78.19;100101.83;1752867;81;21012;-90
2022/01/09 05:59:03;;;;;;;75.37;39.83;;;;;;;0.85;78.11;100103.95;1754541;81;21079;-90
2022/01/09 06:01:29;;;;;;;74.72;41.00;;;;;;;0.84;78.12;100089.61;1754440;81;21091;-89
2022/01/09 06:03:56;;;;;;;80.17;42.55;;;;;;;0.86;78.22;100087.99;1754583;81;21033;-89
2022/01/09 06:06:23;;;;;;;82.15;42.15;;;;;;;0.88;78.26;100092.47;1754385;81;22589;-89
2022/01/09 06:08:50;;;;;;;78.72;41.08;;;;;;;0.91;78.33;100090.43;1754148;81;21083;-89
2022/01/09 06:11:20;;;;;;;83.95;43.73;;;;;;;0.91;78.26;100086.12;1754658;81;21055;-90
2022/01/09 06:13:45;;;;;;;81.67;39.95;;;;;;;0.91;78.16;100090.02;1753447;81;21585;-89
2022/01/09 06:16:11;;;;;;;76.25;38.88;;;;;;;0.91;78.21;100091.31;1754614;81;21087;-89
2022/01/09 06:18:38;;;;;;;75.52;39.05;;;;;;;0.91;78.14;100103.39;1754493;81;21790;-89
2022/01/09 06:21:05;;;;;;;74.70;37.73;;;;;;;0.89;78.10;100109.78;1754546;81;21044;-89
2022/01/09 06:23:31;;;;;;;72.40;39.55;;;;;;;0.87;78.04;100107.52;1754535;81;21502;-89
2022/01/09 06:25:58;;;;;;;78.37;40.05;;;;;;;0.86;78.16;100106.13;1754551;81;21591;-89
2022/01/09 06:28:25;;;;;;;71.60;39.18;;;;;;;0.87;78.13;100107.92;1754960;81;21068;-88
2022/01/09 06:30:51;;;;;;;69.00;38.28;;;;;;;0.84;78.05;100111.64;1754834;81;21824;-88
2022/01/09 06:33:18;;;;;;;72.17;39.70;;;;;;;0.81;78.06;100117.55;1754661;81;21181;-87
2022/01/09 06:35:45;;;;;;;80.53;42.95;;;;;;;0.77;78.04;100113.02;1754891;81;21045;-88
2022/01/09 06:38:11;;;;;;;75.67;40.12;;;;;;;0.79;78.18;100119.17;1754947;81;21044;-88
2022/01/09 06:40:38;;;;;;;83.37;44.38;;;;;;;0.82;78.30;100119.73;1754444;81;21499;-88
2022/01/09 06:43:05;;;;;;;81.70;41.98;;;;;;;0.84;78.27;100122.88;1754451;81;21756;-88
2022/01/09 06:45:33;;;;;;;81.05;42.17;;;;;;;0.83;78.22;100118.94;1726393;81;21091;-89
2022/01/09 06:48:00;;;;;;;81.08;40.78;;;;;;;0.86;78.33;100118.67;1754427;81;21575;-89
2022/01/09 06:50:27;;;;;;;84.25;43.63;;;;;;;0.88;78.21;100120.97;1754456;81;21123;-89
2022/01/09 06:52:54;;;;;;;83.42;43.92;;;;;;;0.85;78.23;100118.20;1754530;81;21024;-88
2022/01/09 06:55:21;;;;;;;76.17;41.68;;;;;;;0.87;78.22;100118.29;1754617;81;21756;-89
2022/01/09 06:57:47;;;;;;;82.00;44.30;;;;;;;0.90;78.31;100121.94;1752680;81;21107;-89
2022/01/09 07:00:17;;;;;;;91.47;46.30;;;;;;;0.93;78.36;100121.20;1752263;81;21114;-90
2022/01/09 07:02:45;;;;;;;87.72;48.28;;;;;;;0.96;78.33;100128.73;1752297;81;21096;-88
2022/01/09 07:05:12;;;;;;;90.95;47.05;;;;;;;0.99;78.31;100129.29;1750018;81;21087;-88
2022/01/09 07:07:38;;;;;;;86.67;47.27;;;;;;;0.98;78.22;100130.12;1730457;81;23063;-85
2022/01/09 07:10:08;;;;;;;87.12;47.08;;;;;;;1.00;78.31;100128.91;1752082;81;21094;-88
2022/01/09 07:12:37;;;;;;;85.83;46.45;;;;;;;1.04;78.29;100132.14;1750068;81;21600;-87
2022/01/09 07:15:05;;;;;;;88.62;46.25;;;;;;;1.03;78.25;100135.53;1733578;81;21101;-83
2022/01/09 07:17:32;;;;;;;90.90;49.85;;;;;;;1.03;78.23;100136.41;1721786;83;21111;-83
2022/01/09 07:20:01;;;;;;;89.17;48.08;;;;;;;1.07;78.30;100140.06;1721528;82;22444;-82
2022/01/09 07:22:30;;;;;;;101.35;50.83;;;;;;;1.10;78.19;100148.01;1716163;82;21113;-82
2022/01/09 07:25:00;;;;;;;114.10;60.08;;;;;;;1.10;78.12;100152.78;1724370;83;21570;-82
2022/01/09 07:27:27;;;;;;;110.72;56.50;;;;;;;1.13;78.10;100148.19;1725898;82;21087;-82
2022/01/09 07:29:56;;;;;;;100.70;55.03;;;;;;;1.13;78.01;100151.66;1725895;83;21581;-82
2022/01/09 07:32:29;;;;;;;102.17;55.23;;;;;;;1.12;77.86;100157.64;1723302;82;21868;-82
2022/01/09 07:34:57;;;;;;;90.67;50.98;;;;;;;1.06;77.74;100156.02;1721111;83;21542;-82
2022/01/09 07:37:30;;;;;;;82.95;49.10;;;;;;;1.03;77.64;100161.45;1721697;82;21052;-83
2022/01/09 07:40:00;;;;;;;85.40;50.98;;;;;;;0.96;77.55;100161.12;1720921;83;21199;-83
2022/01/09 07:42:28;;;;;;;95.50;53.68;;;;;;;0.93;77.65;100166.55;1701280;82;21057;-82
2022/01/09 07:44:58;;;;;;;101.50;59.23;;;;;;;0.94;77.77;100164.45;1719035;82;21849;-82
2022/01/09 07:47:25;;;;;;;104.03;57.98;;;;;;;0.91;77.58;100165.16;1701628;83;21161;-83
2022/01/09 07:49:55;;;;;;;103.92;58.25;;;;;;;0.88;77.57;100168.91;1721869;82;21056;-85
2022/01/09 07:52:21;;;;;;;97.47;53.33;;;;;;;0.87;77.59;100172.29;1721847;82;21024;-84
2022/01/09 07:54:48;;;;;;;88.90;50.50;;;;;;;0.76;77.43;100160.45;1722035;83;21118;-84
2022/01/09 07:57:15;;;;;;;87.20;49.23;;;;;;;0.75;77.38;100176.78;1722109;82;21718;-82
2022/01/09 07:59:44;;;;;;;87.33;49.45;;;;;;;0.70;77.25;100183.44;1722615;83;21115;-82
2022/01/09 08:02:10;;;;;;;86.30;49.80;;;;;;;0.62;77.14;100183.02;1723434;82;21048;-83
2022/01/09 08:04:40;;;;;;;90.87;51.28;;;;;;;0.50;77.07;100180.61;1723373;82;21068;-82
2022/01/09 08:07:07;;;;;;;101.42;54.27;;;;;;;0.37;77.09;100169.08;1723700;82;21086;-82
2022/01/09 08:09:34;;;;;;;112.32;56.60;;;;;;;0.31;77.04;100184.28;1723502;82;21689;-83
2022/01/09 08:12:00;;;;;;;118.25;61.45;;;;;;;0.21;77.09;100184.54;1723588;82;21568;-82
2022/01/09 08:14:27;;;;;;;116.33;57.78;;;;;;;0.10;77.10;100183.54;1723602;83;22115;-83
2022/01/09 08:16:54;;;;;;;105.07;54.20;;;;;;;0.03;77.23;100188.27;1723634;82;21598;-83
2022/01/09 08:19:21;;;;;;;93.80;52.45;;;;;;;-0.08;77.32;100188.53;1702788;83;21024;-83
2022/01/09 08:21:48;;;;;;;94.17;52.60;;;;;;;-0.12;77.44;100185.69;1723632;83;21791;-82
2022/01/09 08:24:20;;;;;;;92.62;51.23;;;;;;;-0.17;77.54;100189.28;1702382;83;21059;-82
2022/01/09 08:26:45;;;;;;;105.07;54.40;;;;;;;-0.20;77.58;100191.30;1723357;82;21661;-82
2022/01/09 08:29:17;;;;;;;95.57;52.88;;;;;;;-0.24;77.68;100188.45;1703615;82;21067;-85
2022/01/09 08:31:49;;;;;;;90.85;50.03;;;;;;;-0.26;77.70;100195.23;1724051;82;21044;-85
2022/01/09 08:34:17;;;;;;;89.13;47.03;;;;;;;-0.30;77.63;100202.29;1723606;81;22438;-86
2022/01/09 08:36:47;;;;;;;86.22;46.13;;;;;;;-0.35;77.66;100196.86;1724187;82;21056;-86
2022/01/09 08:39:33;;;;;;;82.80;45.65;;;;;;;-0.37;77.69;100199.76;1723804;82;21064;-80
2022/01/09 08:42:02;;;;;;;79.80;42.65;;;;;;;-0.38;77.68;100197.96;1721990;82;21087;-81
2022/01/09 08:44:28;;;;;;;76.70;44.88;;;;;;;-0.41;77.68;100196.09;1752849;80;21183;-81
2022/01/09 08:46:55;;;;;;;74.20;43.00;;;;;;;-0.42;77.68;100194.30;1759780;79;21889;-81
2022/01/09 08:49:21;;;;;;;87.78;46.37;;;;;;;-0.41;77.67;100204.27;1740511;81;21612;-81
2022/01/09 08:51:48;;;;;;;75.50;43.60;;;;;;;-0.42;77.67;100202.05;1740465;81;21075;-82
2022/01/09 08:54:18;;;;;;;74.42;43.75;;;;;;;-0.42;77.68;100203.75;1740680;82;21668;-84
2022/01/09 08:56:44;;;;;;;71.37;42.43;;;;;;;-0.43;77.64;100199.41;1739798;81;21624;-83
2022/01/09 08:59:13;;;;;;;74.70;43.85;;;;;;;-0.44;77.64;100197.20;1736941;81;22899;-83
2022/01/09 09:01:41;;;;;;;80.22;43.50;;;;;;;-0.45;77.56;100201.89;1737068;82;21075;-84
2022/01/09 09:04:11;;;;;;;75.03;44.88;;;;;;;-0.44;77.59;100215.70;1737219;82;21553;-84
2022/01/09 09:06:38;;;;;;;73.92;42.83;;;;;;;-0.44;77.61;100210.13;1737334;82;21381;-88
2022/01/09 09:09:05;;;;;;;72.75;42.53;;;;;;;-0.44;77.57;100205.36;1803817;79;21532;-89
2022/01/09 09:11:33;;;;;;;71.82;41.40;;;;;;;-0.42;77.60;100199.87;1753987;79;21556;-89
2022/01/09 09:14:04;;;;;;;71.07;43.68;;;;;;;-0.38;77.59;100201.84;1783496;79;21113;-89
2022/01/09 09:16:31;;;;;;;72.27;43.30;;;;;;;-0.38;77.52;100200.55;1805142;79;21089;-82
2022/01/09 09:18:57;;;;;;;70.70;41.40;;;;;;;-0.36;77.47;100198.94;1804933;79;21312;-83
2022/01/09 09:21:24;;;;;;;71.28;42.85;;;;;;;-0.35;77.43;100193.39;1805291;79;21502;-89
2022/01/09 09:23:51;;;;;;;78.80;42.95;;;;;;;-0.34;77.44;100193.86;1805306;79;21670;-89
2022/01/09 09:26:17;;;;;;;72.90;44.15;;;;;;;-0.31;77.46;100196.23;1776724;79;21533;-85
2022/01/09 09:28:44;;;;;;;78.12;43.73;;;;;;;-0.28;77.37;100195.52;1803141;79;21078;-81
2022/01/09 09:31:11;;;;;;;69.10;42.00;;;;;;;-0.28;77.34;100191.26;1804783;79;21057;-83
2022/01/09 09:33:38;;;;;;;81.90;44.83;;;;;;;-0.28;77.22;100190.34;1804913;79;21074;-88
2022/01/09 09:36:05;;;;;;;77.15;45.08;;;;;;;-0.31;77.13;100187.59;1804699;79;21696;-82
2022/01/09 09:38:33;;;;;;;75.00;44.55;;;;;;;-0.34;77.09;100189.98;1776645;79;21608;-82
2022/01/09 09:41:00;;;;;;;85.12;45.73;;;;;;;-0.36;77.12;100190.30;1808094;79;21045;-81
2022/01/09 09:43:26;;;;;;;78.35;42.13;;;;;;;-0.37;77.07;100185.54;1808062;78;20983;-82
2022/01/09 09:45:53;;;;;;;77.47;43.73;;;;;;;-0.37;77.12;100185.54;1802459;79;21019;-82
2022/01/09 09:48:20;;;;;;;81.30;46.30;;;;;;;-0.39;77.12;100184.56;1770199;79;21608;-81
2022/01/09 09:50:48;;;;;;;81.80;46.20;;;;;;;-0.36;77.22;100191.19;1770161;79;21063;-82
2022/01/09 09:53:15;;;;;;;76.35;44.40;;;;;;;-0.33;77.18;100190.49;1769800;79;21055;-82
2022/01/09 09:55:51;;;;;;;81.53;46.75;;;;;;;-0.31;77.26;100188.89;1759249;81;21561;-82
2022/01/09 09:58:12;;;;;;;81.47;46.10;;;;;;;-0.30;77.19;100192.86;1799441;77;21037;-82
2022/01/09 10:00:53;;;;;;;82.22;45.10;;;;;;;-0.26;77.18;100192.65;1811384;77;22580;-82
2022/01/09 10:03:34;;;;;;;78.83;43.85;;;;;;;-0.28;76.94;100187.38;1811042;78;21117;-82
2022/01/09 10:06:01;;;;;;;82.53;45.45;;;;;;;-0.29;76.90;100185.58;1811320;78;21552;-82
2022/01/09 10:08:38;;;;;;;78.70;45.70;;;;;;;-0.30;76.85;100184.19;1811553;79;21047;-82
2022/01/09 10:11:16;;;;;;;83.75;48.42;;;;;;;-0.30;76.86;100181.61;1811840;79;21030;-82
2022/01/09 10:13:47;;;;;;;76.40;43.60;;;;;;;-0.31;76.82;100186.30;1806109;77;21738;-82
2022/01/09 10:16:16;;;;;;;81.17;44.53;;;;;;;-0.31;76.76;100182.02;1803374;79;21316;-82
2022/01/09 10:18:46;;;;;;;79.75;46.23;;;;;;;-0.30;76.78;100175.14;1804231;78;21010;-82
2022/01/09 10:21:17;;;;;;;80.65;47.62;;;;;;;-0.27;76.77;100177.50;1777602;79;21054;-82
2022/01/09 10:24:07;;;;;;;84.03;49.03;;;;;;;-0.33;76.84;100162.93;1803903;78;21124;-82
2022/01/09 10:26:38;;;;;;;85.00;50.50;;;;;;;-0.21;76.77;100177.89;1803311;79;22402;-82
2022/01/09 10:29:06;;;;;;;92.67;51.00;;;;;;;-0.20;76.66;100176.19;1804306;79;21030;-82
2022/01/09 10:31:43;;;;;;;86.53;51.77;;;;;;;-0.25;76.43;100175.02;1804587;78;21058;-82
2022/01/09 10:34:10;;;;;;;89.70;52.88;;;;;;;-0.33;76.43;100169.40;1803993;79;21197;-82
2022/01/09 10:36:51;;;;;;;91.35;53.33;;;;;;;-0.35;76.54;100170.12;1804237;79;21109;-82
2022/01/09 10:39:24;;;;;;;90.20;52.73;;;;;;;-0.37;76.48;100167.44;1804550;79;22725;-82
2022/01/09 10:41:58;;;;;;;97.70;53.50;;;;;;;-0.43;76.40;100163.20;1789621;78;21143;-82
2022/01/09 10:44:33;;;;;;;99.50;53.60;;;;;;;-0.45;76.53;100157.94;1777876;79;21810;-82
2022/01/09 10:47:05;;;;;;;89.00;51.30;;;;;;;-0.42;76.61;100159.39;1804161;79;21037;-83
2022/01/09 10:49:48;;;;;;;99.37;55.48;;;;;;;-0.39;76.58;100161.28;1804606;79;21053;-83
2022/01/09 10:52:27;;;;;;;102.22;56.68;;;;;;;-0.39;76.50;100161.28;1804769;79;21786;-83
2022/01/09 10:54:58;;;;;;;101.18;55.60;;;;;;;-0.36;76.50;100157.98;1804601;79;21359;-82
2022/01/09 10:57:28;;;;;;;93.03;52.70;;;;;;;-0.36;76.38;100164.44;1803356;78;21061;-82
2022/01/09 11:00:14;;;;;;;93.82;54.27;;;;;;;-0.37;76.39;100158.80;1802059;79;21002;-82
2022/01/09 11:02:41;;;;;;;102.38;58.02;;;;;;;-0.34;76.44;100160.25;1801932;79;21545;-82
2022/01/09 11:05:08;;;;;;;95.42;54.00;;;;;;;-0.32;76.39;100149.22;1803680;77;21739;-82
2022/01/09 11:07:35;;;;;;;93.92;54.95;;;;;;;-0.30;76.28;100147.61;1804650;78;21042;-82
2022/01/09 11:10:01;;;;;;;98.97;56.68;;;;;;;-0.28;76.23;100147.67;1804461;79;22330;-82
2022/01/09 11:12:35;;;;;;;101.38;57.55;;;;;;;-0.25;76.25;100150.03;1804936;79;21150;-82
2022/01/09 11:15:01;;;;;;;88.37;51.85;;;;;;;-0.23;76.11;100147.55;1804644;79;21603;-82
2022/01/09 11:17:28;;;;;;;99.35;54.08;;;;;;;-0.24;75.96;100153.54;1804615;79;21972;-82
2022/01/09 11:19:54;;;;;;;92.50;53.75;;;;;;;-0.27;75.98;100156.81;1804745;79;21157;-82
2022/01/09 11:22:21;;;;;;;92.85;55.50;;;;;;;-0.26;76.03;100157.33;1804957;78;21029;-82